createdAt,value
2023-08-11T00:01:53.064Z,16.20
2023-08-11T00:04:19.469Z,20.43
2023-08-11T00:06:46.441Z,14.15
2023-08-11T00:09:13.542Z,19.05
2023-08-11T00:11:42.225Z,25.10
2023-08-11T00:14:08.667Z,17.05
2023-08-11T00:16:35.872Z,14.97
2023-08-11T00:19:02.479Z,16.55
2023-08-11T00:21:28.886Z,16.88
2023-08-11T00:23:55.236Z,16.40
2023-08-11T00:26:21.814Z,17.30
2023-08-11T00:28:48.213Z,18.03
2023-08-11T00:31:14.913Z,14.93
2023-08-11T00:33:42.506Z,15.88
2023-08-11T00:36:09.452Z,14.15
2023-08-11T00:38:39.276Z,14.38
2023-08-11T00:41:06.491Z,18.93
2023-08-11T00:43:33.772Z,14.52
2023-08-11T00:46:04.958Z,15.65
2023-08-11T00:48:31.765Z,19.10
2023-08-11T00:50:58.909Z,19.52
2023-08-11T00:53:25.967Z,16.03
2023-08-11T00:55:53.131Z,17.45
2023-08-11T00:58:19.642Z,15.77
2023-08-11T01:00:48.182Z,17.50
2023-08-11T01:03:14.746Z,18.73
2023-08-11T01:05:44.418Z,21.97
2023-08-11T01:08:31.207Z,19.30
2023-08-11T01:11:33.438Z,15.57
2023-08-11T01:14:07.148Z,19.73
2023-08-11T01:16:34.033Z,17.42
2023-08-11T01:19:01.234Z,15.77
2023-08-11T01:21:28.265Z,14.90
2023-08-11T01:23:55.313Z,16.05
2023-08-11T01:26:22.008Z,17.27
2023-08-11T01:28:48.721Z,18.08
2023-08-11T01:31:15.141Z,18.40
2023-08-11T01:33:41.776Z,20.92
2023-08-11T01:36:09.711Z,18.00
2023-08-11T01:38:36.230Z,21.65
2023-08-11T01:41:02.766Z,16.25
2023-08-11T01:43:30.376Z,16.83
2023-08-11T01:45:57.476Z,17.10
2023-08-11T01:48:24.576Z,19.92
2023-08-11T01:50:51.139Z,17.45
2023-08-11T01:53:17.523Z,26.60
2023-08-11T01:55:45.566Z,17.97
2023-08-11T01:58:12.247Z,15.95
2023-08-11T02:00:38.853Z,17.83
2023-08-11T02:03:05.453Z,16.60
2023-08-11T02:05:32.046Z,15.73
2023-08-11T02:07:59.554Z,21.57
2023-08-11T02:10:26.036Z,18.92
2023-08-11T02:12:52.662Z,21.33
2023-08-11T02:15:20.166Z,16.00
2023-08-11T02:17:46.877Z,18.50
2023-08-11T02:20:22.904Z,17.87
2023-08-11T02:22:50.499Z,18.30
2023-08-11T02:25:17.259Z,17.48
2023-08-11T02:27:44.854Z,21.00
2023-08-11T02:30:12.332Z,17.42
2023-08-11T02:32:42.127Z,17.77
2023-08-11T02:35:09.060Z,20.92
2023-08-11T02:37:35.670Z,19.35
2023-08-11T02:40:02.222Z,19.42
2023-08-11T02:42:28.684Z,22.83
2023-08-11T02:44:55.173Z,21.20
2023-08-11T02:47:21.682Z,18.02
2023-08-11T02:49:49.002Z,17.98
2023-08-11T02:52:15.843Z,18.58
2023-08-11T02:54:42.386Z,18.42
2023-08-11T02:57:08.798Z,19.00
2023-08-11T02:59:35.214Z,19.10
2023-08-11T03:02:02.381Z,18.40
2023-08-11T03:04:29.012Z,19.40
2023-08-11T03:06:56.017Z,20.13
2023-08-11T03:09:22.613Z,19.37
2023-08-11T03:11:49.108Z,19.75
2023-08-11T03:14:15.686Z,24.70
2023-08-11T03:16:42.201Z,22.27
2023-08-11T03:19:08.614Z,21.00
2023-08-11T03:21:35.048Z,18.90
2023-08-11T03:24:01.605Z,19.70
2023-08-11T03:26:28.103Z,21.80
2023-08-11T03:28:54.763Z,19.67
2023-08-11T03:31:21.228Z,21.55
2023-08-11T03:33:47.635Z,20.70
2023-08-11T03:36:15.152Z,23.42
2023-08-11T03:38:41.783Z,22.65
2023-08-11T03:41:08.209Z,22.15
2023-08-11T03:43:34.851Z,20.08
2023-08-11T03:46:01.212Z,19.97
2023-08-11T03:48:27.752Z,21.00
2023-08-11T03:50:59.037Z,20.77
2023-08-11T03:53:25.590Z,20.60
2023-08-11T03:55:52.224Z,23.60
2023-08-11T03:58:18.945Z,24.73
2023-08-11T04:00:45.408Z,24.95
2023-08-11T04:03:11.958Z,22.95
2023-08-11T04:05:38.724Z,26.05
2023-08-11T04:08:08.261Z,23.40
2023-08-11T04:10:36.286Z,23.37
2023-08-11T04:13:02.821Z,27.35
2023-08-11T04:15:29.315Z,22.45
2023-08-11T04:17:55.713Z,20.85
2023-08-11T04:20:23.588Z,24.15
2023-08-11T04:22:50.303Z,31.90
2023-08-11T04:25:17.413Z,23.40
2023-08-11T04:27:43.895Z,24.33
2023-08-11T04:30:11.544Z,22.30
2023-08-11T04:32:38.013Z,25.02
2023-08-11T04:35:07.625Z,27.47
2023-08-11T04:37:34.427Z,24.08
2023-08-11T04:40:01.123Z,24.48
2023-08-11T04:42:27.531Z,22.63
2023-08-11T04:44:54.392Z,25.48
2023-08-11T04:47:20.869Z,26.53
2023-08-11T04:49:47.340Z,22.70
2023-08-11T04:52:14.070Z,24.98
2023-08-11T04:54:40.566Z,22.73
2023-08-11T04:57:07.068Z,26.20
2023-08-11T04:59:33.451Z,24.50
2023-08-11T05:02:00.347Z,25.35
2023-08-11T05:04:27.277Z,22.02
2023-08-11T05:06:53.842Z,26.05
2023-08-11T05:09:20.411Z,25.48
2023-08-11T05:11:46.761Z,27.43
2023-08-11T05:14:15.491Z,22.30
2023-08-11T05:16:41.997Z,29.83
2023-08-11T05:19:08.461Z,25.40
2023-08-11T05:21:35.040Z,26.00
2023-08-11T05:24:01.548Z,30.00
2023-08-11T05:26:29.133Z,22.20
2023-08-11T05:28:55.894Z,28.77
2023-08-11T05:31:23.491Z,23.58
2023-08-11T05:33:50.128Z,25.70
2023-08-11T05:36:16.604Z,23.10
2023-08-11T05:38:43.129Z,25.30
2023-08-11T05:41:10.254Z,25.95
2023-08-11T05:43:37.653Z,22.50
2023-08-11T05:46:04.800Z,24.90
2023-08-11T05:48:31.199Z,24.20
2023-08-11T05:50:57.744Z,21.58
2023-08-11T05:53:24.116Z,22.75
2023-08-11T05:55:50.746Z,23.90
2023-08-11T05:58:17.485Z,25.17
2023-08-11T06:00:43.948Z,23.87
2023-08-11T06:03:10.550Z,21.77
2023-08-11T06:05:37.145Z,22.27
2023-08-11T06:08:06.958Z,19.13
2023-08-11T06:10:34.432Z,34.83
2023-08-11T06:13:01.129Z,18.90
2023-08-11T06:15:27.825Z,22.48
2023-08-11T06:17:54.344Z,21.60
2023-08-11T06:20:34.480Z,18.83
2023-08-11T06:23:07.754Z,18.40
2023-08-11T06:25:34.271Z,25.07
2023-08-11T06:28:00.730Z,20.63
2023-08-11T06:30:29.393Z,17.77
2023-08-11T06:32:56.188Z,17.65
2023-08-11T06:35:23.336Z,18.25
2023-08-11T06:37:49.793Z,20.03
2023-08-11T06:40:16.897Z,18.80
2023-08-11T06:42:43.368Z,22.40
2023-08-11T06:45:10.133Z,19.05
2023-08-11T06:47:36.716Z,16.90
2023-08-11T06:50:04.448Z,14.87
2023-08-11T06:52:31.031Z,17.33
2023-08-11T06:54:57.636Z,18.58
2023-08-11T06:57:24.393Z,16.07
2023-08-11T06:59:51.015Z,16.88
2023-08-11T07:02:17.480Z,17.60
2023-08-11T07:04:44.204Z,20.00
2023-08-11T07:07:10.958Z,18.13
2023-08-11T07:09:37.403Z,16.02
2023-08-11T07:12:03.990Z,18.65
2023-08-11T07:14:30.431Z,19.53
2023-08-11T07:16:57.155Z,19.23
2023-08-11T07:19:23.602Z,19.17
2023-08-11T07:21:50.123Z,17.13
2023-08-11T07:24:16.729Z,17.42
2023-08-11T07:26:43.176Z,18.57
2023-08-11T07:29:09.789Z,17.55
2023-08-11T07:31:36.222Z,16.20
2023-08-11T07:34:02.940Z,18.58
2023-08-11T07:36:29.367Z,16.10
2023-08-11T07:39:00.172Z,16.13
2023-08-11T07:41:35.927Z,16.35
2023-08-11T07:44:02.752Z,16.95
2023-08-11T07:46:29.302Z,15.45
2023-08-11T07:48:56.456Z,14.93
2023-08-11T07:51:23.232Z,17.73
2023-08-11T07:53:49.971Z,20.05
2023-08-11T07:56:16.410Z,16.25
2023-08-11T07:58:43.018Z,15.15
2023-08-11T08:01:09.763Z,15.73
2023-08-11T08:03:36.557Z,14.50
2023-08-11T08:06:06.136Z,20.05
2023-08-11T08:08:34.767Z,15.25
2023-08-11T08:11:04.864Z,14.85
2023-08-11T08:13:32.450Z,16.13
2023-08-11T08:15:58.897Z,15.27
2023-08-11T08:18:25.421Z,16.45
2023-08-11T08:20:52.021Z,25.45
2023-08-11T08:23:18.802Z,16.08
2023-08-11T08:25:45.231Z,15.45
2023-08-11T08:28:12.435Z,15.23
2023-08-11T08:30:38.846Z,19.27
2023-08-11T08:33:07.629Z,14.73
2023-08-11T08:35:34.496Z,16.15
2023-08-11T08:38:01.095Z,16.08
2023-08-11T08:40:28.561Z,15.20
2023-08-11T08:42:55.091Z,16.65
2023-08-11T08:45:23.080Z,17.80
2023-08-11T08:47:50.951Z,17.73
2023-08-11T08:50:18.420Z,18.00
2023-08-11T08:52:44.982Z,16.57
2023-08-11T08:55:11.815Z,19.98
2023-08-11T08:57:38.302Z,18.35
2023-08-11T09:00:05.128Z,17.65
2023-08-11T09:02:32.140Z,17.50
2023-08-11T09:04:58.773Z,16.47
2023-08-11T09:07:25.765Z,19.05
2023-08-11T09:09:52.404Z,33.72
2023-08-11T09:12:19.012Z,19.75
2023-08-11T09:14:45.603Z,18.83
2023-08-11T09:17:12.404Z,17.87
2023-08-11T09:19:38.890Z,20.77
2023-08-11T09:22:14.207Z,19.42
2023-08-11T09:24:41.903Z,17.83
2023-08-11T09:27:08.430Z,21.92
2023-08-11T09:29:35.962Z,19.67
2023-08-11T09:32:03.178Z,18.90
2023-08-11T09:34:29.864Z,20.20
2023-08-11T09:36:56.264Z,23.58
2023-08-11T09:39:22.925Z,21.55
2023-08-11T09:41:49.965Z,20.10
2023-08-11T09:44:17.607Z,20.42
2023-08-11T09:46:44.516Z,21.30
2023-08-11T09:49:11.432Z,18.88
2023-08-11T09:51:38.505Z,21.45
2023-08-11T09:54:07.954Z,18.97
2023-08-11T09:56:44.426Z,18.90
2023-08-11T09:59:11.623Z,18.95
2023-08-11T10:01:38.232Z,21.08
2023-08-11T10:04:09.135Z,19.80
2023-08-11T10:06:36.245Z,17.93
2023-08-11T10:09:04.107Z,18.98
2023-08-11T10:11:32.895Z,18.15
2023-08-11T10:14:01.713Z,23.60
2023-08-11T10:16:29.165Z,23.05
2023-08-11T10:18:56.601Z,20.37
2023-08-11T10:21:24.640Z,20.70
2023-08-11T10:23:51.174Z,21.08
2023-08-11T10:26:17.756Z,18.85
2023-08-11T10:28:44.792Z,19.27
2023-08-11T10:31:11.372Z,18.07
2023-08-11T10:33:37.917Z,19.70
2023-08-11T10:36:05.723Z,18.90
2023-08-11T10:38:33.378Z,19.75
2023-08-11T10:41:01.190Z,19.20
2023-08-11T10:43:31.985Z,22.43
2023-08-11T10:46:14.991Z,19.23
2023-08-11T10:48:41.586Z,20.02
2023-08-11T10:51:23.678Z,19.20
2023-08-11T10:53:50.102Z,21.15
2023-08-11T10:56:16.857Z,21.67
2023-08-11T10:58:44.482Z,21.77
2023-08-11T11:01:11.185Z,18.70
2023-08-11T11:03:37.960Z,20.77
2023-08-11T11:06:05.664Z,20.27
2023-08-11T11:08:32.282Z,20.27
2023-08-11T11:10:58.860Z,19.27
2023-08-11T11:13:25.773Z,19.42
2023-08-11T11:15:52.233Z,24.33
2023-08-11T11:18:18.678Z,20.02
2023-08-11T11:20:45.419Z,25.27
2023-08-11T11:23:12.486Z,19.60
2023-08-11T11:25:38.962Z,20.23
2023-08-11T11:28:05.704Z,21.20
2023-08-11T11:30:32.501Z,19.88
2023-08-11T11:33:00.537Z,21.47
2023-08-11T11:35:28.662Z,23.85
2023-08-11T11:37:55.489Z,22.75
2023-08-11T11:40:21.931Z,20.55
2023-08-11T11:42:48.400Z,22.13
2023-08-11T11:45:15.920Z,22.03
2023-08-11T11:47:43.052Z,22.23
2023-08-11T11:50:09.768Z,22.38
2023-08-11T11:52:37.814Z,21.88
2023-08-11T11:55:05.742Z,23.90
2023-08-11T11:57:32.132Z,19.70
2023-08-11T11:59:58.823Z,22.00
2023-08-11T12:02:26.796Z,19.58
2023-08-11T12:04:53.853Z,19.95
2023-08-11T12:07:30.614Z,22.27
2023-08-11T12:09:56.978Z,20.93
2023-08-11T12:12:26.786Z,20.77
2023-08-11T12:14:53.994Z,19.92
2023-08-11T12:17:22.464Z,20.52
2023-08-11T12:19:48.922Z,19.10
2023-08-11T12:22:15.426Z,20.87
2023-08-11T12:24:41.822Z,21.27
2023-08-11T12:27:08.338Z,22.42
2023-08-11T12:29:34.899Z,35.58
2023-08-11T12:32:01.296Z,29.25
2023-08-11T12:34:27.819Z,21.80
2023-08-11T12:36:54.163Z,21.40
2023-08-11T12:39:20.766Z,20.08
2023-08-11T12:41:47.345Z,23.52
2023-08-11T12:44:13.945Z,19.33
2023-08-11T12:46:40.564Z,21.43
2023-08-11T12:49:07.048Z,23.67
2023-08-11T12:51:33.687Z,21.73
2023-08-11T12:54:00.140Z,19.73
2023-08-11T12:56:29.621Z,21.08
2023-08-11T12:58:56.034Z,21.53
2023-08-11T13:01:22.953Z,26.40
2023-08-11T13:03:52.370Z,32.15
2023-08-11T13:06:19.043Z,20.00
2023-08-11T13:08:45.524Z,23.15
2023-08-11T13:11:12.018Z,18.00
2023-08-11T13:13:38.483Z,18.42
2023-08-11T13:16:05.257Z,17.83
2023-08-11T13:18:31.675Z,21.67
2023-08-11T13:20:58.135Z,17.48
2023-08-11T13:23:24.608Z,18.10
2023-08-11T13:25:51.234Z,19.60
2023-08-11T13:28:17.749Z,17.23
2023-08-11T13:30:44.248Z,19.15
2023-08-11T13:33:10.746Z,16.83
2023-08-11T13:35:37.124Z,15.83
2023-08-11T13:38:03.686Z,20.25
2023-08-11T13:40:30.138Z,19.63
2023-08-11T13:42:56.697Z,18.90
2023-08-11T13:45:23.176Z,15.48
2023-08-11T13:47:49.900Z,16.70
2023-08-11T13:50:16.550Z,21.55
2023-08-11T13:52:44.764Z,16.60
2023-08-11T13:55:11.688Z,21.17
2023-08-11T13:57:38.186Z,22.50
2023-08-11T14:00:09.002Z,24.00
2023-08-11T14:02:35.467Z,19.63
2023-08-11T14:05:02.191Z,20.20
2023-08-11T14:07:32.571Z,25.15
2023-08-11T14:10:01.868Z,18.98
2023-08-11T14:12:28.311Z,18.27
2023-08-11T14:14:55.081Z,20.40
2023-08-11T14:17:21.543Z,21.30
2023-08-11T14:19:48.086Z,20.35
2023-08-11T14:22:14.508Z,20.95
2023-08-11T14:24:40.943Z,19.00
2023-08-11T14:27:07.419Z,20.73
2023-08-11T14:29:33.861Z,21.48
2023-08-11T14:32:13.852Z,16.02
2023-08-11T14:34:46.742Z,14.30
2023-08-11T14:37:15.223Z,17.27
2023-08-11T14:39:43.362Z,18.25
2023-08-11T14:42:09.984Z,17.98
2023-08-11T14:44:36.553Z,13.18
2023-08-11T14:47:03.010Z,18.38
2023-08-11T14:49:29.419Z,18.03
2023-08-11T14:51:56.179Z,26.33
2023-08-11T14:54:27.714Z,17.52
2023-08-11T14:56:55.397Z,17.85
2023-08-11T14:59:22.000Z,15.70
2023-08-11T15:01:48.492Z,15.77
2023-08-11T15:04:14.937Z,15.23
2023-08-11T15:06:41.364Z,20.33
2023-08-11T15:09:08.594Z,15.27
2023-08-11T15:11:35.253Z,20.65
2023-08-11T15:14:01.697Z,18.47
2023-08-11T15:16:28.878Z,23.23
2023-08-11T15:18:55.354Z,12.00
2023-08-11T15:21:21.886Z,15.20
2023-08-11T15:23:48.349Z,20.02
2023-08-11T15:26:15.248Z,15.70
2023-08-11T15:28:42.022Z,17.15
2023-08-11T15:31:08.636Z,15.60
2023-08-11T15:33:35.148Z,16.70
2023-08-11T15:36:01.703Z,14.95
2023-08-11T15:38:28.517Z,15.70
2023-08-11T15:40:54.971Z,19.23
2023-08-11T15:43:21.459Z,17.88
2023-08-11T15:45:47.968Z,18.90
2023-08-11T15:48:14.542Z,20.38
2023-08-11T15:50:40.991Z,20.93
2023-08-11T15:53:07.458Z,20.45
2023-08-11T15:55:36.685Z,14.95
2023-08-11T15:58:03.427Z,22.30
2023-08-11T16:00:29.917Z,19.35
2023-08-11T16:02:56.411Z,19.47
2023-08-11T16:05:23.009Z,18.23
2023-08-11T16:07:49.589Z,20.95
2023-08-11T16:10:16.101Z,20.83
2023-08-11T16:12:42.516Z,18.75
2023-08-11T16:15:09.470Z,18.50
2023-08-11T16:17:36.468Z,21.15
2023-08-11T16:20:03.036Z,16.63
2023-08-11T16:22:31.533Z,19.33
2023-08-11T16:24:58.028Z,16.77
2023-08-11T16:27:24.890Z,19.63
2023-08-11T16:29:53.831Z,17.65
2023-08-11T16:32:20.708Z,21.50
2023-08-11T16:34:47.159Z,23.88
2023-08-11T16:37:13.538Z,21.85
2023-08-11T16:39:39.974Z,23.53
2023-08-11T16:42:07.578Z,21.67
2023-08-11T16:44:34.103Z,18.08
2023-08-11T16:47:00.489Z,16.13
2023-08-11T16:49:27.063Z,16.73
2023-08-11T16:51:53.528Z,19.40
2023-08-11T16:54:20.180Z,19.48
2023-08-11T16:56:46.630Z,19.98
2023-08-11T16:59:13.099Z,21.17
2023-08-11T17:01:39.604Z,18.48
2023-08-11T17:04:06.264Z,15.43
2023-08-11T17:06:32.768Z,15.30
2023-08-11T17:08:59.270Z,19.10
2023-08-11T17:11:25.787Z,17.38
2023-08-11T17:13:52.382Z,19.20
2023-08-11T17:16:19.464Z,16.90
2023-08-11T17:18:47.285Z,13.18
2023-08-11T17:21:19.756Z,15.52
2023-08-11T17:23:47.457Z,15.35
2023-08-11T17:26:14.552Z,13.93
2023-08-11T17:28:41.276Z,12.40
2023-08-11T17:31:08.567Z,13.70
2023-08-11T17:33:36.251Z,19.25
2023-08-11T17:36:03.806Z,11.60
2023-08-11T17:38:30.795Z,17.73
2023-08-11T17:40:57.242Z,14.20
2023-08-11T17:43:24.016Z,14.13
2023-08-11T17:45:51.589Z,14.50
2023-08-11T17:48:18.411Z,11.27
2023-08-11T17:50:44.821Z,13.50
2023-08-11T17:53:11.251Z,13.63
2023-08-11T17:55:37.611Z,13.30
2023-08-11T17:58:04.436Z,12.00
2023-08-11T18:00:31.026Z,21.50
2023-08-11T18:02:57.732Z,13.85
2023-08-11T18:05:24.317Z,19.00
2023-08-11T18:07:50.752Z,19.45
2023-08-11T18:10:17.289Z,13.48
2023-08-11T18:12:43.806Z,15.27
2023-08-11T18:15:10.310Z,12.45
2023-08-11T18:17:37.149Z,12.90
2023-08-11T18:20:05.837Z,16.98
2023-08-11T18:22:32.292Z,15.82
2023-08-11T18:24:58.820Z,18.08
2023-08-11T18:27:25.292Z,15.65
2023-08-11T18:29:52.071Z,12.10
2023-08-11T18:32:18.832Z,11.88
2023-08-11T18:34:45.349Z,18.55
2023-08-11T18:37:12.127Z,14.55
2023-08-11T18:39:38.685Z,10.48
2023-08-11T18:42:05.689Z,16.10
2023-08-11T18:44:32.276Z,15.43
2023-08-11T18:46:58.848Z,16.25
2023-08-11T18:49:28.428Z,16.55
2023-08-11T18:51:55.033Z,14.38
2023-08-11T18:54:21.393Z,14.87
2023-08-11T18:56:47.782Z,18.30
2023-08-11T18:59:14.285Z,15.27
2023-08-11T19:01:41.775Z,15.98
2023-08-11T19:04:09.085Z,16.92
2023-08-11T19:06:38.425Z,18.77
2023-08-11T19:09:08.510Z,10.30
2023-08-11T19:11:35.245Z,12.13
2023-08-11T19:14:02.298Z,11.55
2023-08-11T19:16:28.803Z,12.00
2023-08-11T19:18:55.374Z,12.43
2023-08-11T19:21:21.817Z,12.07
2023-08-11T19:23:48.376Z,11.45
2023-08-11T19:26:14.978Z,14.43
2023-08-11T19:28:41.389Z,10.65
2023-08-11T19:31:08.074Z,11.37
2023-08-11T19:33:36.075Z,10.32
2023-08-11T19:36:02.479Z,10.23
2023-08-11T19:38:29.298Z,12.85
2023-08-11T19:40:55.972Z,13.10
2023-08-11T19:43:22.439Z,14.27
2023-08-11T19:45:49.555Z,11.60
2023-08-11T19:48:19.362Z,12.20
2023-08-11T19:50:49.306Z,15.35
2023-08-11T19:53:15.861Z,18.63
2023-08-11T19:55:46.228Z,14.67
2023-08-11T19:58:13.113Z,16.13
2023-08-11T20:00:40.154Z,17.42
2023-08-11T20:03:08.338Z,14.63
2023-08-11T20:05:35.735Z,10.13
2023-08-11T20:08:02.167Z,12.13
2023-08-11T20:10:28.600Z,12.40
2023-08-11T20:12:55.286Z,12.07
2023-08-11T20:15:21.726Z,12.63
2023-08-11T20:17:49.373Z,9.75
2023-08-11T20:20:15.888Z,11.40
2023-08-11T20:22:42.416Z,12.95
2023-08-11T20:25:09.517Z,12.40
2023-08-11T20:27:36.104Z,10.20
2023-08-11T20:30:03.262Z,13.32
2023-08-11T20:32:29.712Z,14.30
2023-08-11T20:34:56.329Z,10.23
2023-08-11T20:37:22.942Z,9.93
2023-08-11T20:39:49.296Z,13.32
2023-08-11T20:42:15.834Z,10.80
2023-08-11T20:44:42.340Z,15.77
2023-08-11T20:47:09.062Z,19.27
2023-08-11T20:49:35.784Z,12.93
2023-08-11T20:52:02.340Z,13.02
2023-08-11T20:54:28.735Z,14.25
2023-08-11T20:56:57.043Z,13.00
2023-08-11T20:59:23.773Z,13.63
2023-08-11T21:01:50.325Z,14.13
2023-08-11T21:04:16.885Z,16.67
2023-08-11T21:06:43.486Z,19.38
2023-08-11T21:09:10.246Z,11.33
2023-08-11T21:11:36.784Z,15.10
2023-08-11T21:14:09.638Z,14.05
2023-08-11T21:16:36.458Z,16.60
2023-08-11T21:19:02.947Z,15.45
2023-08-11T21:21:29.424Z,21.47
2023-08-11T21:23:55.980Z,16.40
2023-08-11T21:26:22.649Z,15.73
2023-08-11T21:28:49.154Z,17.73
2023-08-11T21:31:18.874Z,15.02
2023-08-11T21:33:45.755Z,12.20
2023-08-11T21:36:12.171Z,14.77
2023-08-11T21:38:38.580Z,16.73
2023-08-11T21:41:05.563Z,19.35
2023-08-11T21:43:32.009Z,17.08
2023-08-11T21:45:58.428Z,18.77
2023-08-11T21:48:24.831Z,18.60
2023-08-11T21:50:51.432Z,17.98
2023-08-11T21:53:23.521Z,18.02
2023-08-11T21:55:50.726Z,20.85
2023-08-11T21:58:17.328Z,19.63
2023-08-11T22:00:44.897Z,22.67
2023-08-11T22:03:11.676Z,20.60
2023-08-11T22:05:38.231Z,22.50
2023-08-11T22:08:05.872Z,23.05
2023-08-11T22:10:32.464Z,20.73
2023-08-11T22:12:59.059Z,17.05
2023-08-11T22:15:25.534Z,21.13
2023-08-11T22:17:52.067Z,17.73
2023-08-11T22:20:18.735Z,20.58
2023-08-11T22:22:45.178Z,18.97
2023-08-11T22:25:11.812Z,17.30
2023-08-11T22:27:38.593Z,19.48
2023-08-11T22:30:06.031Z,17.98
2023-08-11T22:32:32.730Z,18.67
2023-08-11T22:34:59.301Z,19.23
2023-08-11T22:37:26.205Z,25.15
2023-08-11T22:39:52.950Z,21.35
2023-08-11T22:42:22.061Z,20.52
2023-08-11T22:44:51.077Z,19.00
2023-08-11T22:47:17.825Z,21.23
2023-08-11T22:49:44.283Z,21.02
2023-08-11T22:52:10.963Z,17.77
2023-08-11T22:54:37.529Z,18.13
2023-08-11T22:57:04.032Z,22.20
2023-08-11T22:59:30.739Z,21.80
2023-08-11T23:01:57.321Z,23.67
2023-08-11T23:04:23.843Z,20.17
2023-08-11T23:06:50.302Z,20.90
2023-08-11T23:09:16.969Z,23.67
2023-08-11T23:11:43.508Z,21.13
2023-08-11T23:14:09.977Z,25.73
2023-08-11T23:16:36.440Z,26.17
2023-08-11T23:19:03.073Z,24.27
2023-08-11T23:21:30.382Z,20.70
2023-08-11T23:23:56.827Z,21.20
2023-08-11T23:26:23.644Z,24.50
2023-08-11T23:28:50.098Z,23.02
2023-08-11T23:31:17.934Z,24.38
2023-08-11T23:33:44.527Z,27.05
2023-08-11T23:36:12.342Z,26.90
2023-08-11T23:38:38.989Z,28.27
2023-08-11T23:41:05.697Z,27.60
2023-08-11T23:43:32.595Z,25.58
2023-08-11T23:45:59.392Z,27.17
2023-08-11T23:48:25.904Z,25.53
2023-08-11T23:50:52.401Z,23.48
2023-08-11T23:53:18.869Z,25.27
2023-08-11T23:55:45.577Z,28.75
2023-08-11T23:58:12.928Z,25.15
